Aeroporto :
LOGIN :

Iscrizione | Disclaimer

   EN    FR    IT 

 










Sommario :    VFR   VFR Marginale   IFR   IFR Intensivo   IFR Molto Intensivo
Visibilità : 
Base nubi : 
>= 8 km
>= 3000ft
5 / 8 km
1000 / 3000 ft
1500m / 5 km
500 / 1000 ft
800 / 1500m
200 / 500 ft
< 800m
< 200 ft
Simboli :   Temporali  Nebbia  Neve Forte  Precipitazioni Forti  Vento > 20 kt
SIGMETs :   Varie  Temporali  Ghiacco  Turbolenza  Onda orograficha  Ceneri Vulcaniche






- Altitudine del aeroporto : 79 ft
- Codice IATA : SPU


LDSP - Split

ULTIMO METAR :
  • 190400Z AUTO 36006KT CAVOK 10/M03 Q1020 NOSIG

METARs OBSOLETI :
  • 190330Z AUTO 02007KT CAVOK 09/M03 Q1020 NOSIG
  • 190300Z AUTO 02008KT CAVOK 10/M03 Q1020 NOSIG
  • 190230Z AUTO 36006KT CAVOK 10/M03 Q1020
  • 190200Z AUTO 36007KT CAVOK 10/M03 Q1020
  • 190130Z AUTO 35006KT CAVOK 11/M03 Q1021

TAF TAF LDSP
Valido dal 19 a 00 ore il 20 a 00 ore UTC


182325Z 1900/2000 35007KT 9999 SCT050 TX15/1912Z TN05/1903Z
BECMG 1911/1913 23008KT
PROB30
TEMPO 1915/1922 31012KT TSRA FEW030CB SCT040
BECMG 1923/2000 05012KT



MetMap, La meteo Aeronautica in un colpo d'occhio ! - Copyright ORBIFLY Dicembre 2007 - Disclaimer

ORBIFLY MET'MAP TEAM :

Programmazione e sviluppo : Alexandra Zaïnal
Concezione : Baudouin d'Aumeries
Aiuto per la programmazione : Marc-Olivier Méhu
Supporto tecnico e logistico : Manuel Goepfert
Aiuto per la traduzione : Arnaldo La Scala

Contatto : metmap@orbifly.com




FONTI E CREDITI :

   NOAA